2OI7 weather

Worthington Industries Heliport
Columbus, Ohio, United States

Public forecast

Using degrees Fahrenheit for public forecast. Weather courtesy of forecast.io.

Closest aviation weather report (METAR) to Worthington Industries Heliport

Closest report is The Ohio State University Airport - Don Scott Field, 4.6 nm (8.6 km) WSW. Retrieved 2019/12/05 15:53 UTC (1 hour ago):

KOSU 051553Z 28011KT 10SM CLR 04/M04 A3009 RMK AO2 SLP197 T00391039

Closest aviation forecast (TAF) to Worthington Industries Heliport

Closest forecast is John Glenn Columbus International Airport, 8.0 nm (14.8 km) SSE. Retrieved 2019/12/05 12:30 UTC (4 hours ago):

TAF KCMH 051127Z 0512/0612 25005KT P6SM SCT250 FM060800 20004KT P6SM BKN100